createdAt,value
2019-03-29T00:00:34.330Z,11.77
2019-03-29T00:03:01.546Z,10.70
2019-03-29T00:05:28.602Z,11.97
2019-03-29T00:07:55.641Z,11.33
2019-03-29T00:10:22.736Z,11.37
2019-03-29T00:12:49.770Z,10.67
2019-03-29T00:15:16.884Z,11.93
2019-03-29T00:17:44.165Z,11.87
2019-03-29T00:20:11.671Z,12.53
2019-03-29T00:22:38.721Z,12.03
2019-03-29T00:25:07.177Z,11.80
2019-03-29T00:27:35.326Z,12.37
2019-03-29T00:30:03.423Z,12.80
2019-03-29T00:32:31.913Z,11.80
2019-03-29T00:34:59.421Z,12.53
2019-03-29T00:37:26.446Z,12.80
2019-03-29T00:39:53.534Z,13.33
2019-03-29T00:42:21.653Z,13.23
2019-03-29T00:44:49.533Z,13.97
2019-03-29T00:47:17.560Z,13.30
2019-03-29T00:49:44.614Z,13.73
2019-03-29T00:52:14.755Z,14.27
2019-03-29T00:54:43.442Z,14.80
2019-03-29T00:57:13.564Z,14.47
2019-03-29T00:59:45.016Z,15.03
2019-03-29T01:02:12.198Z,15.27
2019-03-29T01:04:39.227Z,16.37
2019-03-29T01:07:06.325Z,15.30
2019-03-29T01:09:33.845Z,14.07
2019-03-29T01:12:03.447Z,14.37
2019-03-29T01:14:30.905Z,13.70
2019-03-29T01:16:58.035Z,12.83
2019-03-29T01:19:25.098Z,13.77
2019-03-29T01:21:55.309Z,14.23
2019-03-29T01:24:24.808Z,14.73
2019-03-29T01:26:52.383Z,15.53
2019-03-29T01:29:22.870Z,13.50
2019-03-29T01:31:49.940Z,13.90
2019-03-29T01:34:17.136Z,14.63
2019-03-29T01:36:44.441Z,14.33
2019-03-29T01:39:11.524Z,15.43
2019-03-29T01:41:39.095Z,14.80
2019-03-29T01:44:06.606Z,15.80
2019-03-29T01:46:33.731Z,15.93
2019-03-29T01:49:04.243Z,15.27
2019-03-29T01:51:31.327Z,15.13
2019-03-29T01:53:58.637Z,15.87
2019-03-29T01:56:25.667Z,15.93
2019-03-29T01:59:00.805Z,16.03
2019-03-29T02:01:28.426Z,14.07
2019-03-29T02:03:56.178Z,16.83
2019-03-29T02:06:23.376Z,16.00
2019-03-29T02:08:50.920Z,15.10
2019-03-29T02:11:18.074Z,16.03
2019-03-29T02:13:45.453Z,15.73
2019-03-29T02:16:12.695Z,17.13
2019-03-29T02:18:39.987Z,16.70
2019-03-29T02:21:07.160Z,19.07
2019-03-29T02:23:34.224Z,16.83
2019-03-29T02:26:01.353Z,18.40
2019-03-29T02:28:29.085Z,18.10
2019-03-29T02:30:56.545Z,16.87
2019-03-29T02:33:23.666Z,17.27
2019-03-29T02:35:51.024Z,17.50
2019-03-29T02:38:18.159Z,17.17
2019-03-29T02:40:45.262Z,18.63
2019-03-29T02:43:17.799Z,16.67
2019-03-29T02:45:44.891Z,15.20
2019-03-29T02:48:16.699Z,11.83
2019-03-29T02:50:44.403Z,15.17
2019-03-29T02:53:14.370Z,16.17
2019-03-29T02:55:43.885Z,17.23
2019-03-29T02:58:11.050Z,18.47
2019-03-29T03:00:38.087Z,17.97
2019-03-29T03:03:07.627Z,19.07
2019-03-29T03:05:34.854Z,18.93
2019-03-29T03:08:01.998Z,19.77
2019-03-29T03:10:29.203Z,18.37
2019-03-29T03:12:56.574Z,18.70
2019-03-29T03:15:23.595Z,18.87
2019-03-29T03:17:50.807Z,18.97
2019-03-29T03:20:18.327Z,20.07
2019-03-29T03:22:46.503Z,20.37
2019-03-29T03:25:13.658Z,22.37
2019-03-29T03:27:40.728Z,21.70
2019-03-29T03:30:08.399Z,17.00
2019-03-29T03:32:35.487Z,17.10
2019-03-29T03:35:03.402Z,16.87
2019-03-29T03:37:32.761Z,15.57
2019-03-29T03:39:59.964Z,17.03
2019-03-29T03:42:27.218Z,17.87
2019-03-29T03:44:54.324Z,18.57
2019-03-29T03:47:21.768Z,18.87
2019-03-29T03:49:48.783Z,19.67
2019-03-29T03:52:16.408Z,19.77
2019-03-29T03:54:43.833Z,18.83
2019-03-29T03:57:13.336Z,18.13
2019-03-29T03:59:41.015Z,18.90
2019-03-29T04:02:08.078Z,18.93
2019-03-29T04:04:37.647Z,17.23
2019-03-29T04:07:04.315Z,19.00
2019-03-29T04:09:48.046Z,19.37
2019-03-29T04:12:00.825Z,17.63
2019-03-29T04:14:28.211Z,19.33
2019-03-29T04:16:55.287Z,18.47
2019-03-29T04:19:22.308Z,18.70
2019-03-29T04:21:51.663Z,18.53
2019-03-29T04:24:18.747Z,19.13
2019-03-29T04:26:45.911Z,19.93
2019-03-29T04:29:13.334Z,19.47
2019-03-29T04:31:40.807Z,20.43
2019-03-29T04:34:10.775Z,19.73
2019-03-29T04:36:38.822Z,20.00
2019-03-29T04:39:06.061Z,20.43
2019-03-29T04:41:33.570Z,21.23
2019-03-29T04:44:00.676Z,22.77
2019-03-29T04:46:27.829Z,21.40
2019-03-29T04:48:54.917Z,21.57
2019-03-29T04:51:22.013Z,20.63
2019-03-29T04:53:49.441Z,21.50
2019-03-29T04:56:16.646Z,20.73
2019-03-29T04:58:43.821Z,22.47
2019-03-29T05:01:13.321Z,21.00
2019-03-29T05:03:40.491Z,20.93
2019-03-29T05:06:09.071Z,22.57
2019-03-29T05:08:36.197Z,21.73
2019-03-29T05:11:03.873Z,21.30
2019-03-29T05:13:32.982Z,21.37
2019-03-29T05:16:00.785Z,19.97
2019-03-29T05:18:27.830Z,22.53
2019-03-29T05:20:54.970Z,21.60
2019-03-29T05:23:22.226Z,22.77
2019-03-29T05:25:49.387Z,22.30
2019-03-29T05:28:17.496Z,22.07
2019-03-29T05:30:44.595Z,21.70
2019-03-29T05:33:11.806Z,21.47
2019-03-29T05:35:40.961Z,21.87
2019-03-29T05:38:08.161Z,21.77
2019-03-29T05:40:35.510Z,21.70
2019-03-29T05:43:02.908Z,21.27
2019-03-29T05:45:30.067Z,21.23
2019-03-29T05:47:59.543Z,20.90
2019-03-29T05:50:26.771Z,21.03
2019-03-29T05:52:54.098Z,22.13
2019-03-29T05:55:32.080Z,22.67
2019-03-29T05:57:53.056Z,22.47
2019-03-29T06:00:20.968Z,22.27
2019-03-29T06:02:48.086Z,22.47
2019-03-29T06:05:17.465Z,22.23
2019-03-29T06:07:44.845Z,21.13
2019-03-29T06:10:12.209Z,20.83
2019-03-29T06:12:39.336Z,19.20
2019-03-29T06:15:07.754Z,21.77
2019-03-29T06:17:47.608Z,21.27
2019-03-29T06:20:05.278Z,20.80
2019-03-29T06:22:32.474Z,20.50
2019-03-29T06:24:59.598Z,21.70
2019-03-29T06:27:28.919Z,21.13
2019-03-29T06:29:59.492Z,21.47
2019-03-29T06:32:26.706Z,22.23
2019-03-29T06:34:54.235Z,23.30
2019-03-29T06:37:22.251Z,23.97
2019-03-29T06:39:50.212Z,23.93
2019-03-29T06:42:17.433Z,24.17
2019-03-29T06:44:44.734Z,23.87
2019-03-29T06:47:16.675Z,24.17
2019-03-29T06:49:43.815Z,24.20
2019-03-29T06:52:12.170Z,25.83
2019-03-29T06:54:39.408Z,26.57
2019-03-29T06:57:08.632Z,26.67
2019-03-29T06:59:36.471Z,25.90
2019-03-29T07:02:06.012Z,24.33
2019-03-29T07:04:33.526Z,24.70
2019-03-29T07:07:00.752Z,25.40
2019-03-29T07:09:30.048Z,26.37
2019-03-29T07:11:57.639Z,25.70
2019-03-29T07:14:27.288Z,23.63
2019-03-29T07:16:54.945Z,24.43
2019-03-29T07:19:22.298Z,23.67
2019-03-29T07:21:49.478Z,24.67
2019-03-29T07:24:16.811Z,24.60
2019-03-29T07:26:43.967Z,24.97
2019-03-29T07:29:11.840Z,24.40
2019-03-29T07:31:39.010Z,24.10
2019-03-29T07:34:06.250Z,24.60
2019-03-29T07:36:35.580Z,24.53
2019-03-29T07:39:04.971Z,24.17
2019-03-29T07:41:35.023Z,23.73
2019-03-29T07:44:02.957Z,23.53
2019-03-29T07:46:33.179Z,22.97
2019-03-29T07:49:06.214Z,23.53
2019-03-29T07:51:37.711Z,23.70
2019-03-29T07:54:09.967Z,24.47
2019-03-29T07:56:37.689Z,24.73
2019-03-29T07:59:04.958Z,25.00
2019-03-29T08:01:38.393Z,23.03
2019-03-29T08:04:05.663Z,22.57
2019-03-29T08:06:36.443Z,24.00
2019-03-29T08:09:05.740Z,22.50
2019-03-29T08:11:45.446Z,23.17
2019-03-29T08:14:04.227Z,23.60
2019-03-29T08:16:31.286Z,23.33
2019-03-29T08:18:58.511Z,23.13
2019-03-29T08:21:25.631Z,21.40
2019-03-29T08:23:53.964Z,21.33
2019-03-29T08:26:21.166Z,21.23
2019-03-29T08:28:50.425Z,19.73
2019-03-29T08:31:27.711Z,17.00
2019-03-29T08:33:54.939Z,19.37
2019-03-29T08:36:23.174Z,19.77
2019-03-29T08:38:50.604Z,19.33
2019-03-29T08:41:17.822Z,17.67
2019-03-29T08:43:45.404Z,16.50
2019-03-29T08:46:12.775Z,15.03
2019-03-29T08:48:40.142Z,16.47
2019-03-29T08:51:07.453Z,12.30
2019-03-29T08:53:34.797Z,17.43
2019-03-29T08:56:01.991Z,14.67
2019-03-29T08:58:29.233Z,11.97
2019-03-29T09:00:56.319Z,9.87
2019-03-29T09:03:23.391Z,10.93
2019-03-29T09:05:50.622Z,10.93
2019-03-29T09:08:18.110Z,12.03
2019-03-29T09:10:45.337Z,12.47
2019-03-29T09:13:12.510Z,11.83
2019-03-29T09:15:41.409Z,12.33
2019-03-29T09:18:08.755Z,13.47
2019-03-29T09:20:37.959Z,12.40
2019-03-29T09:23:06.188Z,11.80
2019-03-29T09:25:33.545Z,12.57
2019-03-29T09:28:01.492Z,11.30
2019-03-29T09:30:28.839Z,12.30
2019-03-29T09:32:56.281Z,12.93
2019-03-29T09:35:23.567Z,12.87
2019-03-29T09:37:50.750Z,13.07
2019-03-29T09:40:18.156Z,13.00
2019-03-29T09:42:45.479Z,11.93
2019-03-29T09:45:13.557Z,14.30
2019-03-29T09:47:41.110Z,14.17
2019-03-29T09:50:10.617Z,14.03
2019-03-29T09:52:38.191Z,12.57
2019-03-29T09:55:08.448Z,11.70
2019-03-29T09:57:41.425Z,13.93
2019-03-29T10:00:23.062Z,12.90
2019-03-29T10:02:50.923Z,12.60
2019-03-29T10:05:20.449Z,10.77
2019-03-29T10:07:49.441Z,10.50
2019-03-29T10:10:17.145Z,7.57
2019-03-29T10:12:48.325Z,9.03
2019-03-29T10:15:17.658Z,7.17
2019-03-29T10:17:57.463Z,8.47
2019-03-29T10:20:27.202Z,7.63
2019-03-29T10:22:56.767Z,7.30
2019-03-29T10:25:24.983Z,7.67
2019-03-29T10:27:52.375Z,7.70
2019-03-29T10:30:36.428Z,7.20
2019-03-29T10:33:05.442Z,8.10
2019-03-29T10:35:34.166Z,8.10
2019-03-29T10:38:01.677Z,6.23
2019-03-29T10:40:33.571Z,6.93
2019-03-29T10:43:01.392Z,6.70
2019-03-29T10:45:40.337Z,7.40
2019-03-29T10:48:17.849Z,7.03
2019-03-29T10:50:45.697Z,6.40
2019-03-29T10:53:13.656Z,6.23
2019-03-29T10:55:45.434Z,6.03
2019-03-29T10:58:14.285Z,6.50
2019-03-29T11:00:42.417Z,6.40
2019-03-29T11:03:21.308Z,6.23
2019-03-29T11:05:49.434Z,6.43
2019-03-29T11:08:21.496Z,6.63
2019-03-29T11:10:48.691Z,5.97
2019-03-29T11:13:16.827Z,6.23
2019-03-29T11:15:44.452Z,6.50
2019-03-29T11:18:17.190Z,6.03
2019-03-29T11:20:46.896Z,5.83
2019-03-29T11:23:18.313Z,6.57
2019-03-29T11:25:49.927Z,6.73
2019-03-29T11:28:17.207Z,6.67
2019-03-29T11:30:44.409Z,6.30
2019-03-29T11:33:11.715Z,6.67
2019-03-29T11:35:39.754Z,6.60
2019-03-29T11:38:07.103Z,6.60
2019-03-29T11:40:34.300Z,7.03
2019-03-29T11:43:02.050Z,7.23
2019-03-29T11:45:29.803Z,6.37
2019-03-29T11:48:08.222Z,5.67
2019-03-29T11:50:29.872Z,5.50
2019-03-29T11:52:56.974Z,5.87
2019-03-29T11:55:24.193Z,5.40
2019-03-29T11:57:56.031Z,5.50
2019-03-29T12:00:35.038Z,6.70
2019-03-29T12:03:02.572Z,6.43
2019-03-29T12:05:30.095Z,6.17
2019-03-29T12:07:59.729Z,6.83
2019-03-29T12:10:27.112Z,6.27
2019-03-29T12:12:54.432Z,6.23
2019-03-29T12:15:21.627Z,6.27
2019-03-29T12:17:49.003Z,6.27
2019-03-29T12:20:16.185Z,5.73
2019-03-29T12:22:44.605Z,6.40
2019-03-29T12:25:12.100Z,6.10
2019-03-29T12:27:39.273Z,6.27
2019-03-29T12:30:08.160Z,6.30
2019-03-29T12:32:37.115Z,8.00
2019-03-29T12:35:04.996Z,8.00
2019-03-29T12:37:32.215Z,8.37
2019-03-29T12:39:59.583Z,7.93
2019-03-29T12:42:26.891Z,7.50
2019-03-29T12:44:54.110Z,8.17
2019-03-29T12:47:21.381Z,7.63
2019-03-29T12:49:49.324Z,7.63
2019-03-29T12:52:17.162Z,7.03
2019-03-29T12:54:48.916Z,7.53
2019-03-29T12:57:16.703Z,8.03
2019-03-29T12:59:44.558Z,8.40
2019-03-29T13:02:12.194Z,7.63
2019-03-29T13:04:42.523Z,8.90
2019-03-29T13:07:12.031Z,8.57
2019-03-29T13:09:40.266Z,8.67
2019-03-29T13:12:16.409Z,7.77
2019-03-29T13:14:46.276Z,8.40
2019-03-29T13:17:13.743Z,8.57
2019-03-29T13:19:41.150Z,9.63
2019-03-29T13:22:10.932Z,10.13
2019-03-29T13:24:38.321Z,9.43
2019-03-29T13:27:05.682Z,9.57
2019-03-29T13:29:33.809Z,9.53
2019-03-29T13:32:04.442Z,8.70
2019-03-29T13:34:32.600Z,9.60
2019-03-29T13:37:00.882Z,8.90
2019-03-29T13:39:28.096Z,8.10
2019-03-29T13:41:55.444Z,8.30
2019-03-29T13:44:26.625Z,9.03
2019-03-29T13:46:52.389Z,8.93
2019-03-29T13:49:21.240Z,10.23
2019-03-29T13:51:48.701Z,9.67
2019-03-29T13:54:16.137Z,9.20
2019-03-29T13:56:43.679Z,8.80
2019-03-29T13:59:11.841Z,8.60
2019-03-29T14:01:39.680Z,8.63
2019-03-29T14:04:08.847Z,9.83
2019-03-29T14:06:36.431Z,9.87
2019-03-29T14:09:05.925Z,9.57
2019-03-29T14:11:33.483Z,8.80
2019-03-29T14:14:01.425Z,9.33
2019-03-29T14:16:28.771Z,8.23
2019-03-29T14:18:56.474Z,7.10
2019-03-29T14:21:24.607Z,6.50
2019-03-29T14:23:52.114Z,6.20
2019-03-29T14:26:19.614Z,5.90
2019-03-29T14:28:47.352Z,6.80
2019-03-29T14:31:15.137Z,8.07
2019-03-29T14:33:49.429Z,9.97
2019-03-29T14:36:17.760Z,7.00
2019-03-29T14:38:45.323Z,8.53
2019-03-29T14:41:13.024Z,9.03
2019-03-29T14:43:40.303Z,7.40
2019-03-29T14:46:07.667Z,7.60
2019-03-29T14:48:35.146Z,6.37
2019-03-29T14:51:03.175Z,6.60
2019-03-29T14:53:30.639Z,6.40
2019-03-29T14:56:01.465Z,7.77
2019-03-29T14:58:29.358Z,7.40
2019-03-29T15:00:56.572Z,7.90
2019-03-29T15:03:27.394Z,7.93
2019-03-29T15:05:56.994Z,7.70
2019-03-29T15:08:24.572Z,7.93
2019-03-29T15:10:52.124Z,7.23
2019-03-29T15:13:19.565Z,7.23
2019-03-29T15:15:46.820Z,7.20
2019-03-29T15:18:14.312Z,7.13
2019-03-29T15:20:53.391Z,7.43
2019-03-29T15:23:14.262Z,7.67
2019-03-29T15:25:42.543Z,7.93
2019-03-29T15:28:11.029Z,7.80
2019-03-29T15:30:38.653Z,8.23
2019-03-29T15:33:06.818Z,7.23
2019-03-29T15:35:40.298Z,7.33
2019-03-29T15:38:09.589Z,7.50
2019-03-29T15:40:37.155Z,7.23
2019-03-29T15:43:04.517Z,7.10
2019-03-29T15:45:32.075Z,8.03
2019-03-29T15:48:04.708Z,7.57
2019-03-29T15:50:31.691Z,7.13
2019-03-29T15:52:59.035Z,6.70
2019-03-29T15:55:26.582Z,7.23
2019-03-29T15:57:55.540Z,6.70
2019-03-29T16:00:22.674Z,7.17
2019-03-29T16:02:50.055Z,6.27
2019-03-29T16:05:18.165Z,6.20
2019-03-29T16:07:45.729Z,6.30
2019-03-29T16:10:13.524Z,6.63
2019-03-29T16:12:41.119Z,6.53
2019-03-29T16:15:08.371Z,6.40
2019-03-29T16:17:35.703Z,6.70
2019-03-29T16:20:03.337Z,6.37
2019-03-29T16:22:30.688Z,6.90
2019-03-29T16:24:59.008Z,5.90
2019-03-29T16:27:26.563Z,7.23
2019-03-29T16:29:54.556Z,6.17
2019-03-29T16:32:22.966Z,7.13
2019-03-29T16:34:52.538Z,5.93
2019-03-29T16:37:56.658Z,6.13
2019-03-29T16:40:15.460Z,6.07
2019-03-29T16:42:46.718Z,5.30
2019-03-29T16:45:14.493Z,5.67
2019-03-29T16:47:42.615Z,4.87
2019-03-29T16:50:12.173Z,4.23
2019-03-29T16:52:39.780Z,5.33
2019-03-29T16:55:13.702Z,4.93
2019-03-29T16:57:36.730Z,6.13
2019-03-29T17:00:06.598Z,5.23
2019-03-29T17:02:35.434Z,5.10
2019-03-29T17:05:04.313Z,5.33
2019-03-29T17:07:34.433Z,5.10
2019-03-29T17:10:03.792Z,4.93
2019-03-29T17:12:30.928Z,5.53
2019-03-29T17:15:00.739Z,5.27
2019-03-29T17:17:27.988Z,5.80
2019-03-29T17:19:55.201Z,5.53
2019-03-29T17:22:22.469Z,4.90
2019-03-29T17:24:56.918Z,5.30
2019-03-29T17:27:20.009Z,4.73
2019-03-29T17:29:48.310Z,4.63
2019-03-29T17:32:15.533Z,4.80
2019-03-29T17:34:42.884Z,5.20
2019-03-29T17:37:11.110Z,4.93
2019-03-29T17:39:38.406Z,5.00
2019-03-29T17:42:05.731Z,4.73
2019-03-29T17:44:32.899Z,4.20
2019-03-29T17:47:00.219Z,4.47
2019-03-29T17:49:27.475Z,4.73
2019-03-29T17:51:55.021Z,5.23
2019-03-29T17:54:24.019Z,6.37
2019-03-29T17:56:51.234Z,6.60
2019-03-29T17:59:18.675Z,6.10
2019-03-29T18:01:46.024Z,4.80
2019-03-29T18:04:13.277Z,5.80
2019-03-29T18:06:40.606Z,5.03
2019-03-29T18:09:08.266Z,4.57
2019-03-29T18:11:35.553Z,4.97
2019-03-29T18:14:03.199Z,5.00
2019-03-29T18:16:31.302Z,4.93
2019-03-29T18:19:03.011Z,5.63
2019-03-29T18:21:30.360Z,5.33
2019-03-29T18:23:59.493Z,5.40
2019-03-29T18:26:30.082Z,5.17
2019-03-29T18:29:04.712Z,6.33
2019-03-29T18:31:32.285Z,5.93
2019-03-29T18:34:08.468Z,5.83
2019-03-29T18:36:36.539Z,5.13
2019-03-29T18:39:06.196Z,5.37
2019-03-29T18:41:34.697Z,5.53
2019-03-29T18:44:02.733Z,6.37
2019-03-29T18:46:44.042Z,5.93
2019-03-29T18:49:00.309Z,5.93
2019-03-29T18:51:31.308Z,6.77
2019-03-29T18:54:01.482Z,6.63
2019-03-29T18:56:31.825Z,6.87
2019-03-29T18:59:02.331Z,6.73
2019-03-29T19:01:31.860Z,6.77
2019-03-29T19:04:00.569Z,7.13
2019-03-29T19:06:30.394Z,6.40
2019-03-29T19:09:00.045Z,6.30
2019-03-29T19:11:29.819Z,7.73
2019-03-29T19:13:59.866Z,7.17
2019-03-29T19:16:27.400Z,7.43
2019-03-29T19:19:09.169Z,7.00
2019-03-29T19:21:25.763Z,7.10
2019-03-29T19:23:53.209Z,8.20
2019-03-29T19:26:30.385Z,7.60
2019-03-29T19:28:57.785Z,7.40
2019-03-29T19:31:25.485Z,7.40
2019-03-29T19:33:53.418Z,8.03
2019-03-29T19:36:20.810Z,7.53
2019-03-29T19:38:50.758Z,8.10
2019-03-29T19:41:21.140Z,7.10
2019-03-29T19:43:51.479Z,7.80
2019-03-29T19:46:19.294Z,7.77
2019-03-29T19:48:47.512Z,6.97
2019-03-29T19:51:14.794Z,7.93
2019-03-29T19:53:44.872Z,7.10
2019-03-29T19:56:12.449Z,7.30
2019-03-29T19:58:39.528Z,7.40
2019-03-29T20:01:08.809Z,7.50
2019-03-29T20:03:39.104Z,7.17
2019-03-29T20:06:06.233Z,7.33
2019-03-29T20:08:39.020Z,7.83
2019-03-29T20:11:04.042Z,6.37
2019-03-29T20:13:34.235Z,7.23
2019-03-29T20:16:01.400Z,6.53
2019-03-29T20:18:33.278Z,6.50
2019-03-29T20:21:00.931Z,6.47
2019-03-29T20:23:28.200Z,6.93
2019-03-29T20:25:55.302Z,6.87
2019-03-29T20:28:24.442Z,8.60
2019-03-29T20:30:51.806Z,9.53
2019-03-29T20:33:19.116Z,9.80
2019-03-29T20:35:50.500Z,10.47
2019-03-29T20:38:20.754Z,10.10
2019-03-29T20:40:49.167Z,10.13
2019-03-29T20:43:17.723Z,10.40
2019-03-29T20:45:46.746Z,8.90
2019-03-29T20:48:15.321Z,8.40
2019-03-29T20:50:44.519Z,9.60
2019-03-29T20:53:12.632Z,10.63
2019-03-29T20:55:47.726Z,10.83
2019-03-29T20:58:15.267Z,9.80
2019-03-29T21:00:43.459Z,10.23
2019-03-29T21:03:10.825Z,11.93
2019-03-29T21:05:38.145Z,12.13
2019-03-29T21:08:05.353Z,9.90
2019-03-29T21:10:33.868Z,10.13
2019-03-29T21:13:00.982Z,10.10
2019-03-29T21:15:29.302Z,10.27
2019-03-29T21:17:59.291Z,9.33
2019-03-29T21:20:26.627Z,9.30
2019-03-29T21:22:53.958Z,10.27
2019-03-29T21:25:27.421Z,10.20
2019-03-29T21:27:58.276Z,10.30
2019-03-29T21:30:25.527Z,9.73
2019-03-29T21:32:52.809Z,9.13
2019-03-29T21:35:21.071Z,10.67
2019-03-29T21:37:49.945Z,10.10
2019-03-29T21:40:19.127Z,9.07
2019-03-29T21:42:46.232Z,10.40
2019-03-29T21:45:28.097Z,10.50
2019-03-29T21:48:01.523Z,10.10
2019-03-29T21:50:20.406Z,10.90
2019-03-29T21:52:48.027Z,10.27
2019-03-29T21:56:12.073Z,10.17
2019-03-29T21:57:54.173Z,9.73
2019-03-29T22:00:21.482Z,11.90
2019-03-29T22:02:48.647Z,10.37
2019-03-29T22:05:15.852Z,10.13
2019-03-29T22:07:43.089Z,10.17
2019-03-29T22:10:10.729Z,10.20
2019-03-29T22:12:38.543Z,11.17
2019-03-29T22:15:07.853Z,11.33
2019-03-29T22:17:35.198Z,11.47
2019-03-29T22:20:02.522Z,11.73
2019-03-29T22:22:29.610Z,10.60
2019-03-29T22:25:00.303Z,10.73
2019-03-29T22:27:31.715Z,11.10
2019-03-29T22:30:04.713Z,10.80
2019-03-29T22:32:37.710Z,11.00
2019-03-29T22:35:10.059Z,11.30
2019-03-29T22:37:44.023Z,11.20
2019-03-29T22:40:17.989Z,9.87
2019-03-29T22:42:46.565Z,9.80
2019-03-29T22:45:13.769Z,9.53
2019-03-29T22:47:42.958Z,11.20
2019-03-29T22:50:10.973Z,10.47
2019-03-29T22:52:39.383Z,10.57
2019-03-29T22:55:06.868Z,10.93
2019-03-29T22:57:37.233Z,10.87
2019-03-29T23:00:10.045Z,11.90
2019-03-29T23:02:37.643Z,12.40
2019-03-29T23:05:17.736Z,11.10
2019-03-29T23:07:45.218Z,10.47
2019-03-29T23:10:12.600Z,11.00
2019-03-29T23:12:39.774Z,10.30
2019-03-29T23:15:11.220Z,10.53
2019-03-29T23:17:39.379Z,12.17
2019-03-29T23:20:06.963Z,10.87
2019-03-29T23:22:34.830Z,10.77
2019-03-29T23:25:01.900Z,10.80
2019-03-29T23:27:31.145Z,12.07
2019-03-29T23:29:58.340Z,11.17
2019-03-29T23:32:25.589Z,11.10
2019-03-29T23:34:52.948Z,11.90
2019-03-29T23:37:20.241Z,12.20
2019-03-29T23:39:47.378Z,11.83
2019-03-29T23:42:14.496Z,12.60
2019-03-29T23:44:41.603Z,12.00
2019-03-29T23:47:08.732Z,13.47
2019-03-29T23:49:35.843Z,11.70
2019-03-29T23:52:03.104Z,12.13
2019-03-29T23:54:30.186Z,12.63
2019-03-29T23:56:57.284Z,13.40
2019-03-29T23:59:24.393Z,13.17
